createdAt,value
2016-03-14T00:00:47.808Z,71.62
2016-03-14T00:01:47.795Z,71.91
2016-03-14T00:02:47.814Z,72.38
2016-03-14T00:03:47.800Z,71.91
2016-03-14T00:04:47.803Z,71.81
2016-03-14T00:05:47.822Z,72
2016-03-14T00:06:47.792Z,71.81
2016-03-14T00:07:47.795Z,71.91
2016-03-14T00:08:47.798Z,71.91
2016-03-14T00:09:47.786Z,71.72
2016-03-14T00:10:47.788Z,71.81
2016-03-14T00:11:47.791Z,71.62
2016-03-14T00:12:47.794Z,72
2016-03-14T00:13:47.780Z,72.1
2016-03-14T00:14:47.799Z,72.38
2016-03-14T00:15:47.786Z,72.19
2016-03-14T00:16:47.788Z,71.81
2016-03-14T00:17:47.776Z,72.1
2016-03-14T00:18:47.778Z,71.91
2016-03-14T00:19:47.781Z,72.57
2016-03-14T00:20:47.783Z,72.67
2016-03-14T00:21:47.771Z,72.48
2016-03-14T00:22:47.788Z,72.48
2016-03-14T00:23:47.760Z,72.67
2016-03-14T00:24:47.763Z,72.57
2016-03-14T00:25:47.765Z,72.77
2016-03-14T00:26:47.768Z,72.67
2016-03-14T00:27:47.771Z,72.38
2016-03-14T00:28:47.759Z,72.57
2016-03-14T00:29:47.776Z,72.67
2016-03-14T00:30:47.764Z,72.77
2016-03-14T00:31:47.751Z,72.57
2016-03-14T00:32:47.769Z,72.57
2016-03-14T00:33:47.756Z,72.77
2016-03-14T00:34:47.759Z,72.77
2016-03-14T00:35:47.745Z,72
2016-03-14T00:36:47.749Z,71.72
2016-03-14T00:37:47.751Z,71.91
2016-03-14T00:38:47.754Z,72
2016-03-14T00:39:47.803Z,71.91
2016-03-14T00:40:47.744Z,72
2016-03-14T00:41:47.746Z,72.1
2016-03-14T00:42:47.749Z,72.57
2016-03-14T00:43:47.752Z,72.96
2016-03-14T00:44:47.755Z,72.86
2016-03-14T00:45:47.757Z,72.67
2016-03-14T00:46:47.744Z,72.57
2016-03-14T00:47:47.731Z,72.86
2016-03-14T00:48:47.733Z,72.48
2016-03-14T00:49:47.736Z,72.77
2016-03-14T00:50:47.724Z,72.48
2016-03-14T00:51:47.726Z,72.57
2016-03-14T00:52:47.729Z,72.19
2016-03-14T00:53:47.732Z,72.57
2016-03-14T00:54:47.749Z,72.57
2016-03-14T00:55:47.721Z,72.38
2016-03-14T00:56:47.724Z,72.29
2016-03-14T00:57:47.712Z,72.38
2016-03-14T00:58:47.739Z,72.57
2016-03-14T00:59:47.717Z,72.77
2016-03-14T01:00:47.720Z,72.67
2016-03-14T01:01:47.716Z,72.67
2016-03-14T01:02:47.719Z,72.38
2016-03-14T01:03:47.722Z,72.29
2016-03-14T01:04:47.708Z,72.38
2016-03-14T01:05:47.711Z,72.48
2016-03-14T01:06:47.714Z,73.05
2016-03-14T01:07:47.716Z,72.38
2016-03-14T01:08:47.704Z,73.05
2016-03-14T01:09:47.941Z,72.96
2016-03-14T01:10:47.709Z,72.96
2016-03-14T01:11:47.696Z,72.77
2016-03-14T01:12:47.699Z,72.77
2016-03-14T01:13:47.702Z,73.05
2016-03-14T01:14:47.704Z,73.14
2016-03-14T01:15:47.691Z,72.96
2016-03-14T01:16:47.693Z,73.14
2016-03-14T01:17:47.696Z,72.77
2016-03-14T01:18:47.700Z,73.05
2016-03-14T01:19:47.687Z,73.05
2016-03-14T01:20:47.689Z,72.67
2016-03-14T01:21:47.676Z,73.14
2016-03-14T01:22:47.679Z,72.96
2016-03-14T01:23:47.697Z,73.24
2016-03-14T01:24:47.700Z,72.96
2016-03-14T01:25:47.687Z,73.05
2016-03-14T01:26:47.689Z,73.24
2016-03-14T01:27:47.676Z,73.24
2016-03-14T01:28:47.539Z,73.14
2016-03-14T01:29:47.667Z,72.96
2016-03-14T01:30:47.670Z,73.52
2016-03-14T01:31:47.656Z,73.24
2016-03-14T01:32:47.675Z,72.96
2016-03-14T01:33:47.661Z,73.14
2016-03-14T01:34:47.664Z,73.14
2016-03-14T01:35:47.651Z,73.33
2016-03-14T01:36:47.653Z,72.86
2016-03-14T01:37:47.656Z,72.96
2016-03-14T01:38:47.659Z,72.67
2016-03-14T01:39:47.537Z,72.86
2016-03-14T01:40:47.649Z,72.96
2016-03-14T01:41:47.652Z,73.24
2016-03-14T01:42:47.639Z,73.52
2016-03-14T01:43:47.657Z,72.96
2016-03-14T01:44:47.644Z,72.96
2016-03-14T01:45:47.663Z,73.24
2016-03-14T01:46:47.634Z,73.43
2016-03-14T01:47:47.652Z,73.99
2016-03-14T01:48:47.640Z,73.99
2016-03-14T01:49:47.657Z,73.9
2016-03-14T01:50:47.660Z,73.9
2016-03-14T01:51:47.648Z,73.99
2016-03-14T01:52:47.634Z,73.99
2016-03-14T01:53:47.637Z,73.8
2016-03-14T01:54:47.639Z,73.99
2016-03-14T01:55:47.627Z,73.71
2016-03-14T01:56:47.629Z,73.61
2016-03-14T01:57:47.617Z,73.52
2016-03-14T01:58:47.620Z,73.43
2016-03-14T01:59:47.622Z,73.05
2016-03-14T02:00:47.625Z,73.14
2016-03-14T02:01:47.628Z,73.33
2016-03-14T02:02:47.614Z,73.71
2016-03-14T02:03:47.633Z,73.14
2016-03-14T02:04:47.620Z,73.43
2016-03-14T02:05:47.623Z,73.24
2016-03-14T02:06:47.609Z,73.33
2016-03-14T02:07:47.612Z,73.33
2016-03-14T02:08:47.600Z,73.52
2016-03-14T02:09:47.602Z,73.52
2016-03-14T02:10:47.605Z,73.43
2016-03-14T02:11:47.623Z,73.33
2016-03-14T02:12:47.625Z,73.24
2016-03-14T02:13:47.613Z,72.96
2016-03-14T02:14:47.600Z,73.43
2016-03-14T02:15:47.618Z,73.05
2016-03-14T02:16:47.605Z,73.33
2016-03-14T02:17:47.608Z,73.33
2016-03-14T02:18:47.595Z,73.52
2016-03-14T02:19:47.598Z,73.33
2016-03-14T02:20:47.601Z,73.52
2016-03-14T02:21:47.587Z,73.43
2016-03-14T02:22:47.590Z,73.61
2016-03-14T02:23:47.576Z,73.43
2016-03-14T02:24:47.580Z,73.52
2016-03-14T02:25:47.582Z,73.05
2016-03-14T02:26:47.585Z,73.05
2016-03-14T02:27:47.588Z,73.05
2016-03-14T02:28:47.575Z,73.33
2016-03-14T02:29:47.578Z,73.33
2016-03-14T02:30:47.581Z,73.33
2016-03-14T02:31:47.567Z,73.52
2016-03-14T02:32:47.586Z,73.43
2016-03-14T02:33:47.572Z,73.05
2016-03-14T02:34:47.576Z,73.61
2016-03-14T02:35:47.562Z,73.24
2016-03-14T02:36:47.565Z,73.52
2016-03-14T02:37:47.568Z,73.61
2016-03-14T02:38:47.570Z,73.52
2016-03-14T02:39:47.573Z,73.68
2016-03-14T02:40:47.561Z,73.61
2016-03-14T02:41:47.563Z,73.8
2016-03-14T02:42:47.549Z,73.96
2016-03-14T02:43:47.553Z,73.58
2016-03-14T02:44:47.555Z,73.8
2016-03-14T02:45:47.543Z,73.61
2016-03-14T02:46:47.546Z,73.52
2016-03-14T02:47:47.548Z,73.52
2016-03-14T02:48:47.543Z,73.71
2016-03-14T02:49:47.534Z,73.52
2016-03-14T02:50:47.538Z,73.52
2016-03-14T02:51:47.497Z,73.24
2016-03-14T02:52:47.472Z,73.33
2016-03-14T02:53:47.466Z,73.43
2016-03-14T02:54:47.465Z,73.52
2016-03-14T02:55:47.447Z,73.8
2016-03-14T02:56:47.461Z,73.8
2016-03-14T02:57:47.444Z,73.71
2016-03-14T02:58:47.458Z,73.99
2016-03-14T02:59:47.444Z,73.77
2016-03-14T03:00:47.430Z,73.77
2016-03-14T03:01:47.447Z,73.96
2016-03-14T03:02:47.432Z,74.52
2016-03-14T03:03:47.434Z,74.33
2016-03-14T03:04:47.420Z,74.33
2016-03-14T03:05:47.437Z,74.15
2016-03-14T03:06:47.408Z,73.77
2016-03-14T03:07:47.411Z,73.71
2016-03-14T03:08:47.413Z,73.8
2016-03-14T03:09:47.416Z,73.8
2016-03-14T03:10:47.402Z,73.58
2016-03-14T03:11:47.421Z,73.24
2016-03-14T03:12:47.407Z,73.43
2016-03-14T03:13:47.411Z,73.71
2016-03-14T03:14:47.398Z,73.61
2016-03-14T03:15:47.432Z,73.8
2016-03-14T03:16:47.403Z,73.8
2016-03-14T03:17:47.407Z,73.96
2016-03-14T03:18:47.393Z,73.86
2016-03-14T03:19:47.396Z,73.86
2016-03-14T03:20:47.382Z,73.9
2016-03-14T03:21:47.401Z,73.77
2016-03-14T03:22:47.387Z,73.61
2016-03-14T03:23:47.390Z,73.58
2016-03-14T03:24:47.378Z,73.71
2016-03-14T03:25:47.381Z,73.86
2016-03-14T03:26:47.383Z,73.58
2016-03-14T03:27:47.386Z,73.39
2016-03-14T03:28:47.372Z,73.52
2016-03-14T03:29:47.375Z,73.43
2016-03-14T03:30:47.378Z,72.96
2016-03-14T03:31:47.365Z,72.67
2016-03-14T03:32:47.368Z,73.24
2016-03-14T03:33:47.370Z,72.86
2016-03-14T03:34:47.373Z,72.96
2016-03-14T03:35:47.376Z,73.05
2016-03-14T03:36:47.379Z,72.67
2016-03-14T03:37:47.366Z,72.86
2016-03-14T03:38:47.369Z,72.96
2016-03-14T03:39:47.371Z,72.96
2016-03-14T03:40:47.358Z,72.38
2016-03-14T03:41:47.361Z,73.05
2016-03-14T03:42:47.349Z,72.67
2016-03-14T03:43:47.351Z,72.38
2016-03-14T03:44:47.354Z,72.48
2016-03-14T03:45:47.356Z,72.29
2016-03-14T03:46:47.343Z,72.48
2016-03-14T03:47:47.345Z,72.96
2016-03-14T03:48:47.349Z,72.57
2016-03-14T03:49:47.335Z,72.57
2016-03-14T03:50:47.354Z,72.96
2016-03-14T03:51:47.340Z,72.77
2016-03-14T03:52:47.344Z,72.96
2016-03-14T03:53:47.331Z,72.67
2016-03-14T03:54:47.334Z,72.57
2016-03-14T03:55:47.336Z,72.29
2016-03-14T03:56:47.323Z,72.48
2016-03-14T03:57:47.325Z,72.67
2016-03-14T03:58:47.344Z,72.57
2016-03-14T03:59:47.331Z,72.57
2016-03-14T04:00:47.350Z,72.29
2016-03-14T04:01:47.320Z,72.77
2016-03-14T04:02:47.323Z,72.67
2016-03-14T04:03:47.310Z,72.38
2016-03-14T04:04:47.328Z,72.44
2016-03-14T04:05:47.316Z,72.29
2016-03-14T04:06:47.319Z,72.29
2016-03-14T04:07:47.368Z,72.67
2016-03-14T04:08:47.308Z,72.38
2016-03-14T04:09:47.327Z,72.19
2016-03-14T04:10:47.314Z,72.1
2016-03-14T04:11:47.302Z,71.72
2016-03-14T04:12:47.304Z,71.91
2016-03-14T04:13:47.306Z,71.81
2016-03-14T04:14:47.293Z,72.29
2016-03-14T04:15:47.296Z,72.29
2016-03-14T04:16:47.315Z,72.1
2016-03-14T04:17:47.286Z,72.48
2016-03-14T04:18:47.305Z,72.29
2016-03-14T04:19:47.290Z,72.67
2016-03-14T04:20:47.293Z,72.96
2016-03-14T04:21:47.281Z,72.92
2016-03-14T04:22:47.284Z,72.63
2016-03-14T04:23:47.271Z,72.63
2016-03-14T04:24:47.290Z,72.92
2016-03-14T04:25:47.276Z,72.92
2016-03-14T04:26:47.279Z,73.11
2016-03-14T04:27:47.266Z,72.82
2016-03-14T04:28:47.269Z,72.82
2016-03-14T04:29:47.271Z,73.11
2016-03-14T04:30:47.274Z,73.3
2016-03-14T04:31:47.276Z,73.39
2016-03-14T04:32:47.264Z,73.49
2016-03-14T04:33:47.267Z,73.49
2016-03-14T04:34:47.270Z,73.49
2016-03-14T04:35:47.256Z,73.49
2016-03-14T04:36:47.275Z,73.3
2016-03-14T04:37:47.261Z,73.39
2016-03-14T04:38:47.264Z,73.39
2016-03-14T04:39:47.267Z,73.39
2016-03-14T04:40:47.270Z,73.49
2016-03-14T04:41:47.257Z,73.39
2016-03-14T04:42:47.244Z,73.49
2016-03-14T04:43:47.246Z,73.3
2016-03-14T04:44:47.250Z,73.39
2016-03-14T04:45:47.252Z,73.3
2016-03-14T04:46:47.239Z,73.58
2016-03-14T04:47:47.241Z,73.39
2016-03-14T04:48:47.244Z,73.58
2016-03-14T04:49:47.246Z,73.49
2016-03-14T04:50:47.234Z,73.39
2016-03-14T04:51:47.237Z,73.39
2016-03-14T04:52:47.240Z,73.01
2016-03-14T04:53:47.226Z,73.39
2016-03-14T04:54:47.229Z,73.39
2016-03-14T04:55:47.232Z,73.68
2016-03-14T04:56:47.234Z,73.58
2016-03-14T04:57:47.221Z,73.49
2016-03-14T04:58:47.224Z,73.01
2016-03-14T04:59:47.226Z,73.58
2016-03-14T05:00:47.214Z,73.49
2016-03-14T05:01:47.232Z,73.49
2016-03-14T05:02:47.220Z,73.11
2016-03-14T05:03:47.223Z,73.3
2016-03-14T05:04:47.225Z,73.2
2016-03-14T05:05:47.212Z,73.3
2016-03-14T05:06:47.199Z,73.39
2016-03-14T05:07:47.217Z,73.2
2016-03-14T05:08:47.205Z,72.92
2016-03-14T05:09:47.208Z,72.92
2016-03-14T05:10:47.194Z,73.01
2016-03-14T05:11:47.213Z,73.2
2016-03-14T05:12:47.199Z,72.63
2016-03-14T05:13:47.202Z,72.63
2016-03-14T05:14:47.221Z,72.73
2016-03-14T05:15:47.192Z,72.82
2016-03-14T05:16:47.194Z,73.11
2016-03-14T05:17:47.182Z,72.73
2016-03-14T05:18:47.199Z,72.63
2016-03-14T05:19:47.188Z,72.63
2016-03-14T05:20:47.190Z,72.57
2016-03-14T05:21:47.177Z,72.44
2016-03-14T05:22:47.179Z,71.91
2016-03-14T05:23:47.182Z,72
2016-03-14T05:24:47.184Z,72.19
2016-03-14T05:25:47.187Z,71.91
2016-03-14T05:26:47.174Z,72.19
2016-03-14T05:27:47.177Z,72.1
2016-03-14T05:28:47.179Z,71.53
2016-03-14T05:29:47.182Z,71.72
2016-03-14T05:30:47.169Z,71.53
2016-03-14T05:31:47.172Z,71.25
2016-03-14T05:32:47.159Z,71.91
2016-03-14T05:33:47.162Z,71.81
2016-03-14T05:34:47.164Z,71.25
2016-03-14T05:35:47.152Z,71.25
2016-03-14T05:36:47.155Z,71.25
2016-03-14T05:37:47.158Z,71.25
2016-03-14T05:38:47.145Z,71.34
2016-03-14T05:39:47.147Z,71.06
2016-03-14T05:40:47.150Z,71.15
2016-03-14T05:41:47.152Z,71.06
2016-03-14T05:42:47.139Z,70.87
2016-03-14T05:43:47.142Z,70.87
2016-03-14T05:44:47.145Z,70.87
2016-03-14T05:45:47.132Z,70.87
2016-03-14T05:46:47.135Z,70.78
2016-03-14T05:47:47.152Z,70.87
2016-03-14T05:48:47.140Z,71.06
2016-03-14T05:49:47.143Z,71.06
2016-03-14T05:50:47.145Z,71.15
2016-03-14T05:51:47.132Z,70.68
2016-03-14T05:52:47.119Z,70.78
2016-03-14T05:53:47.138Z,70.58
2016-03-14T05:54:47.140Z,70.78
2016-03-14T05:55:47.252Z,70.78
2016-03-14T05:56:47.130Z,70.58
2016-03-14T05:57:47.117Z,70.78
2016-03-14T05:58:47.120Z,70.49
2016-03-14T05:59:47.122Z,70.3
2016-03-14T06:00:47.125Z,70.39
2016-03-14T06:01:47.128Z,70.68
2016-03-14T06:02:47.115Z,70.01
2016-03-14T06:03:47.117Z,70.2
2016-03-14T06:04:47.120Z,70.11
2016-03-14T06:05:47.107Z,70.01
2016-03-14T06:06:47.100Z,70.2
2016-03-14T06:07:47.103Z,70.2
2016-03-14T06:08:47.105Z,70.11
2016-03-14T06:09:47.108Z,70.2
2016-03-14T06:10:47.110Z,70.2
2016-03-14T06:11:47.097Z,70.11
2016-03-14T06:12:47.099Z,70.11
2016-03-14T06:13:47.103Z,70.49
2016-03-14T06:14:47.090Z,70.3
2016-03-14T06:15:47.093Z,70.39
2016-03-14T06:16:47.095Z,70.01
2016-03-14T06:17:47.098Z,70.58
2016-03-14T06:18:47.084Z,70.39
2016-03-14T06:19:47.088Z,70.2
2016-03-14T06:20:47.090Z,70.11
2016-03-14T06:21:47.077Z,70.2
2016-03-14T06:22:47.079Z,70.3
2016-03-14T06:23:47.082Z,70.3
2016-03-14T06:24:47.085Z,70.07
2016-03-14T06:25:47.104Z,70.2
2016-03-14T06:26:47.075Z,70.49
2016-03-14T06:27:47.062Z,69.64
2016-03-14T06:28:47.064Z,69.92
2016-03-14T06:29:47.067Z,70.01
2016-03-14T06:30:47.070Z,69.64
2016-03-14T06:31:47.073Z,69.54
2016-03-14T06:32:47.076Z,69.17
2016-03-14T06:33:47.078Z,69.26
2016-03-14T06:34:47.081Z,68.98
2016-03-14T06:35:47.067Z,69.54
2016-03-14T06:36:47.070Z,68.4
2016-03-14T06:37:47.058Z,68.31
2016-03-14T06:38:47.061Z,68.69
2016-03-14T06:39:47.063Z,68.59
2016-03-14T06:40:47.097Z,68.4
2016-03-14T06:41:47.052Z,67.93
2016-03-14T06:42:47.056Z,67.83
2016-03-14T06:43:47.043Z,67.74
2016-03-14T06:44:47.061Z,67.93
2016-03-14T06:45:47.048Z,67.65
2016-03-14T06:46:47.051Z,67.46
2016-03-14T06:47:47.053Z,67.55
2016-03-14T06:48:47.040Z,67.36
2016-03-14T06:49:47.043Z,66.89
2016-03-14T06:50:47.046Z,66.8
2016-03-14T06:51:47.048Z,66.89
2016-03-14T06:52:47.051Z,66.89
2016-03-14T06:53:47.053Z,66.51
2016-03-14T06:54:47.040Z,66.6
2016-03-14T06:55:47.075Z,66.13
2016-03-14T06:56:47.031Z,65.97
2016-03-14T06:57:47.017Z,65.69
2016-03-14T06:58:47.036Z,65.78
2016-03-14T06:59:47.039Z,65.41
2016-03-14T07:00:47.026Z,65.41
2016-03-14T07:01:47.045Z,64.84
2016-03-14T07:02:47.031Z,64.84
2016-03-14T07:03:47.034Z,65.03
2016-03-14T07:04:47.036Z,64.36
2016-03-14T07:05:47.039Z,64.74
2016-03-14T07:06:47.042Z,63.89
2016-03-14T07:07:47.014Z,64.08
2016-03-14T07:08:47.017Z,63.89
2016-03-14T07:09:47.019Z,63.79
2016-03-14T07:10:47.022Z,63.98
2016-03-14T07:11:47.024Z,64.08
2016-03-14T07:12:47.027Z,63.51
2016-03-14T07:13:47.029Z,63.13
2016-03-14T07:14:47.017Z,62.85
2016-03-14T07:15:47.035Z,62.85
2016-03-14T07:16:47.022Z,63.23
2016-03-14T07:17:47.024Z,62.66
2016-03-14T07:18:47.013Z,63.13
2016-03-14T07:19:47.030Z,63.32
2016-03-14T07:20:47.018Z,63.51
2016-03-14T07:21:47.020Z,63.98
2016-03-14T07:22:47.007Z,63.42
2016-03-14T07:23:47.025Z,63.42
2016-03-14T07:24:47.013Z,63.98
2016-03-14T07:25:47.015Z,63.79
2016-03-14T07:26:47.018Z,63.98
2016-03-14T07:27:47.004Z,63.7
2016-03-14T07:28:47.007Z,64.17
2016-03-14T07:29:47.009Z,63.89
2016-03-14T07:30:47.012Z,63.98
2016-03-14T07:31:47.000Z,64.27
2016-03-14T07:32:47.003Z,64.08
2016-03-14T07:33:47.006Z,64.27
2016-03-14T07:34:47.008Z,63.79
2016-03-14T07:35:47.011Z,63.6
2016-03-14T07:36:46.998Z,63.51
2016-03-14T07:37:47.017Z,63.13
2016-03-14T07:38:47.003Z,62.94
2016-03-14T07:39:47.005Z,62.75
2016-03-14T07:40:47.008Z,62.66
2016-03-14T07:41:47.011Z,62.66
2016-03-14T07:42:46.998Z,62.56
2016-03-14T07:43:47.001Z,62.47
2016-03-14T07:44:47.003Z,62.37
2016-03-14T07:45:46.991Z,62.47
2016-03-14T07:46:46.993Z,62.28
2016-03-14T07:47:46.996Z,62.28
2016-03-14T07:48:46.999Z,62.28
2016-03-14T07:49:47.002Z,62.08
2016-03-14T07:50:47.004Z,62.37
2016-03-14T07:51:46.991Z,62.08
2016-03-14T07:52:46.994Z,61.9
2016-03-14T07:53:46.997Z,61.71
2016-03-14T07:54:46.984Z,61.9
2016-03-14T07:55:47.002Z,61.9
2016-03-14T07:56:46.989Z,61.71
2016-03-14T07:57:46.992Z,61.71
2016-03-14T07:58:46.994Z,61.71
2016-03-14T07:59:46.982Z,61.61
2016-03-14T08:00:47.000Z,61.99
2016-03-14T08:01:46.987Z,61.8
2016-03-14T08:02:46.989Z,61.8
2016-03-14T08:03:46.992Z,61.43
2016-03-14T08:04:46.995Z,61.71
2016-03-14T08:05:46.998Z,61.8
2016-03-14T08:06:46.981Z,61.43
2016-03-14T08:07:46.984Z,61.14
2016-03-14T08:08:46.986Z,61.43
2016-03-14T08:09:46.990Z,60.57
2016-03-14T08:10:46.992Z,60.76
2016-03-14T08:11:46.995Z,60.47
2016-03-14T08:12:46.982Z,60.76
2016-03-14T08:13:46.985Z,60.86
2016-03-14T08:14:46.987Z,60.67
2016-03-14T08:15:46.974Z,60.67
2016-03-14T08:16:46.977Z,60.67
2016-03-14T08:17:46.980Z,60.95
2016-03-14T08:18:46.982Z,60.79
2016-03-14T08:19:46.985Z,60.41
2016-03-14T08:20:46.987Z,59.66
2016-03-14T08:21:46.990Z,59.84
2016-03-14T08:22:46.993Z,60
2016-03-14T08:23:46.980Z,60
2016-03-14T08:24:46.982Z,60.47
2016-03-14T08:25:46.985Z,60.57
2016-03-14T08:26:46.988Z,60.67
2016-03-14T08:27:46.976Z,60.67
2016-03-14T08:28:46.978Z,60.67
2016-03-14T08:29:46.981Z,60.76
2016-03-14T08:30:46.983Z,60
2016-03-14T08:31:46.986Z,60.67
2016-03-14T08:32:46.973Z,60.76
2016-03-14T08:33:46.992Z,61.05
2016-03-14T08:34:46.978Z,61.43
2016-03-14T08:35:46.981Z,61.05
2016-03-14T08:36:46.984Z,60.38
2016-03-14T08:37:46.971Z,60.95
2016-03-14T08:38:46.817Z,60.67
2016-03-14T08:39:46.977Z,60.95
2016-03-14T08:40:46.980Z,60.86
2016-03-14T08:41:46.983Z,60.76
2016-03-14T08:42:47.000Z,60.95
2016-03-14T08:43:46.988Z,60.57
2016-03-14T08:44:46.975Z,60.47
2016-03-14T08:45:46.977Z,61.05
2016-03-14T08:46:46.980Z,61.14
2016-03-14T08:47:46.966Z,60.67
2016-03-14T08:48:46.969Z,60.95
2016-03-14T08:49:46.972Z,60.67
2016-03-14T08:50:46.975Z,60.67
2016-03-14T08:51:46.962Z,60.47
2016-03-14T08:52:46.980Z,60.47
2016-03-14T08:53:46.968Z,60.95
2016-03-14T08:54:46.970Z,60.1
2016-03-14T08:55:46.973Z,60.57
2016-03-14T08:56:46.976Z,60.19
2016-03-14T08:57:46.962Z,60.19
2016-03-14T08:58:46.965Z,59.63
2016-03-14T08:59:46.968Z,59.72
2016-03-14T09:00:46.955Z,59.91
2016-03-14T09:01:46.957Z,60
2016-03-14T09:02:46.960Z,59.81
2016-03-14T09:03:46.962Z,59.94
2016-03-14T09:04:46.965Z,59.37
2016-03-14T09:05:46.953Z,58.99
2016-03-14T09:06:46.971Z,58.99
2016-03-14T09:07:46.973Z,59.27
2016-03-14T09:08:46.961Z,58.61
2016-03-14T09:09:46.963Z,58.8
2016-03-14T09:10:46.981Z,58.89
2016-03-14T09:11:46.969Z,58.7
2016-03-14T09:12:46.971Z,58.33
2016-03-14T09:13:46.958Z,58.51
2016-03-14T09:14:46.961Z,58.7
2016-03-14T09:15:46.964Z,58.61
2016-03-14T09:16:46.966Z,59.15
2016-03-14T09:17:46.969Z,58.89
2016-03-14T09:18:46.956Z,58.8
2016-03-14T09:19:46.960Z,59.08
2016-03-14T09:20:46.962Z,58.61
2016-03-14T09:21:46.965Z,58.61
2016-03-14T09:22:46.951Z,58.7
2016-03-14T09:23:46.970Z,58.23
2016-03-14T09:24:46.956Z,58.42
2016-03-14T09:25:46.960Z,57.47
2016-03-14T09:26:46.962Z,58.04
2016-03-14T09:27:46.949Z,57.95
2016-03-14T09:28:46.967Z,57.47
2016-03-14T09:29:46.954Z,57.66
2016-03-14T09:30:46.957Z,57.28
2016-03-14T09:31:46.959Z,57.57
2016-03-14T09:32:46.963Z,57.28
2016-03-14T09:33:46.965Z,57.85
2016-03-14T09:34:46.984Z,57.66
2016-03-14T09:35:46.970Z,56.9
2016-03-14T09:36:46.958Z,56.9
2016-03-14T09:37:46.961Z,56.9
2016-03-14T09:38:46.964Z,57.19
2016-03-14T09:39:46.950Z,57.66
2016-03-14T09:40:46.953Z,57.47
2016-03-14T09:41:46.956Z,57.76
2016-03-14T09:42:46.959Z,57.57
2016-03-14T09:43:46.961Z,57.19
2016-03-14T09:44:46.948Z,57.19
2016-03-14T09:45:46.967Z,57.28
2016-03-14T09:46:46.985Z,57.19
2016-03-14T09:47:46.956Z,57.47
2016-03-14T09:48:46.958Z,57.28
2016-03-14T09:49:46.961Z,56.9
2016-03-14T09:50:46.964Z,57.38
2016-03-14T09:51:46.966Z,57.28
2016-03-14T09:52:46.955Z,57.19
2016-03-14T09:53:46.957Z,57.38
2016-03-14T09:54:46.960Z,57.38
2016-03-14T09:55:46.962Z,57.57
2016-03-14T09:56:46.965Z,57.57
2016-03-14T09:57:46.951Z,56.99
2016-03-14T09:58:46.954Z,56.71
2016-03-14T09:59:46.957Z,56.81
2016-03-14T10:00:46.960Z,56.62
2016-03-14T10:01:46.963Z,56.71
2016-03-14T10:02:46.965Z,56.9
2016-03-14T10:03:46.968Z,56.9
2016-03-14T10:04:46.971Z,56.05
2016-03-14T10:05:46.958Z,56.81
2016-03-14T10:06:46.981Z,56.24
2016-03-14T10:07:46.972Z,56.9
2016-03-14T10:08:46.976Z,56.71
2016-03-14T10:09:46.947Z,56.9
2016-03-14T10:10:46.966Z,56.99
2016-03-14T10:11:46.968Z,56.62
2016-03-14T10:12:46.971Z,56.84
2016-03-14T10:13:46.958Z,56.62
2016-03-14T10:14:46.961Z,56.52
2016-03-14T10:15:46.947Z,57.09
2016-03-14T10:16:46.966Z,56.71
2016-03-14T10:17:46.968Z,56.71
2016-03-14T10:18:46.971Z,56.55
2016-03-14T10:19:46.958Z,56.36
2016-03-14T10:20:46.960Z,56.46
2016-03-14T10:21:46.964Z,55.98
2016-03-14T10:22:46.966Z,55.41
2016-03-14T10:23:46.954Z,55.04
2016-03-14T10:24:46.971Z,55.51
2016-03-14T10:25:46.959Z,55.13
2016-03-14T10:26:46.962Z,54.94
2016-03-14T10:27:46.948Z,54.75
2016-03-14T10:28:46.968Z,54.94
2016-03-14T10:29:46.954Z,55.13
2016-03-14T10:30:46.957Z,54.46
2016-03-14T10:31:46.959Z,53.89
2016-03-14T10:32:46.962Z,53.89
2016-03-14T10:33:46.965Z,53.8
2016-03-14T10:34:46.953Z,54.18
2016-03-14T10:35:46.955Z,53.99
2016-03-14T10:36:46.957Z,54.56
2016-03-14T10:37:46.960Z,54.37
2016-03-14T10:38:46.963Z,54.75
2016-03-14T10:39:46.966Z,54.46
2016-03-14T10:40:46.968Z,54.56
2016-03-14T10:41:46.955Z,55.04
2016-03-14T10:42:46.958Z,55.22
2016-03-14T10:43:46.961Z,55.04
2016-03-14T10:44:46.963Z,54.66
2016-03-14T10:45:46.966Z,54.27
2016-03-14T10:46:46.969Z,53.89
2016-03-14T10:47:46.971Z,54.08
2016-03-14T10:48:46.802Z,53.8
2016-03-14T10:49:46.961Z,53.33
2016-03-14T10:50:46.963Z,53.61
2016-03-14T10:51:46.966Z,53.52
2016-03-14T10:52:46.968Z,53.54
2016-03-14T10:53:46.971Z,53.16
2016-03-14T10:54:46.959Z,52.97
2016-03-14T10:55:46.961Z,52.78
2016-03-14T10:56:46.965Z,52.31
2016-03-14T10:57:46.951Z,52.22
2016-03-14T10:58:46.970Z,51.55
2016-03-14T10:59:46.972Z,51.48
2016-03-14T11:00:46.975Z,51.48
2016-03-14T11:01:46.979Z,51.64
2016-03-14T11:02:46.965Z,51.55
2016-03-14T11:03:46.968Z,51.74
2016-03-14T11:04:46.971Z,51.93
2016-03-14T11:05:46.974Z,51.45
2016-03-14T11:06:46.976Z,52.12
2016-03-14T11:07:46.963Z,51.74
2016-03-14T11:08:46.982Z,51.55
2016-03-14T11:09:46.968Z,51.74
2016-03-14T11:10:46.971Z,51.36
2016-03-14T11:11:46.973Z,51.36
2016-03-14T11:12:46.976Z,52.12
2016-03-14T11:13:46.979Z,51.64
2016-03-14T11:14:46.967Z,51.64
2016-03-14T11:15:46.970Z,51.36
2016-03-14T11:16:46.972Z,51.55
2016-03-14T11:17:46.959Z,51.64
2016-03-14T11:18:46.977Z,51.45
2016-03-14T11:19:46.964Z,50.62
2016-03-14T11:20:46.967Z,50.24
2016-03-14T11:21:46.973Z,49.77
2016-03-14T11:22:46.975Z,49.1
2016-03-14T11:23:46.993Z,49.77
2016-03-14T11:24:46.980Z,49.68
2016-03-14T11:25:47.046Z,49.1
2016-03-14T11:26:47.017Z,49.01
2016-03-14T11:27:46.988Z,48.44
2016-03-14T11:28:46.976Z,47.58
2016-03-14T11:29:46.979Z,47.68
2016-03-14T11:30:46.981Z,47.77
2016-03-14T11:31:46.985Z,47.8
2016-03-14T11:32:46.987Z,47.87
2016-03-14T11:33:46.990Z,47.71
2016-03-14T11:34:46.977Z,47.8
2016-03-14T11:35:46.979Z,47.42
2016-03-14T11:36:46.998Z,47.77
2016-03-14T11:37:46.984Z,47.77
2016-03-14T11:38:47.003Z,48.16
2016-03-14T11:39:47.006Z,48.06
2016-03-14T11:40:46.992Z,47.87
2016-03-14T11:41:46.996Z,47.77
2016-03-14T11:42:46.998Z,47.77
2016-03-14T11:43:46.984Z,48.16
2016-03-14T11:44:46.987Z,47.77
2016-03-14T11:45:47.006Z,48.16
2016-03-14T11:46:46.993Z,48.06
2016-03-14T11:47:46.995Z,47.97
2016-03-14T11:48:46.998Z,47.39
2016-03-14T11:49:47.017Z,47.77
2016-03-14T11:50:47.004Z,47.77
2016-03-14T11:51:46.991Z,47.39
2016-03-14T11:52:46.994Z,47.49
2016-03-14T11:53:46.996Z,47.39
2016-03-14T11:54:46.992Z,47.68
2016-03-14T11:55:46.986Z,47.87
2016-03-14T11:56:47.134Z,47.68
2016-03-14T11:57:46.971Z,47.87
2016-03-14T11:58:46.954Z,47.87
2016-03-14T11:59:46.951Z,47.49
2016-03-14T12:00:46.950Z,47.87
2016-03-14T12:01:46.949Z,47.42
2016-03-14T12:02:46.948Z,46.94
2016-03-14T12:03:46.947Z,46.66
2016-03-14T12:04:46.792Z,46.85
2016-03-14T12:05:46.949Z,46.85
2016-03-14T12:06:46.982Z,46.85
2016-03-14T12:07:46.953Z,46.56
2016-03-14T12:08:46.938Z,45.9
2016-03-14T12:09:46.956Z,45.42
2016-03-14T12:10:46.943Z,45.23
2016-03-14T12:11:46.992Z,45.42
2016-03-14T12:12:46.948Z,46
2016-03-14T12:13:46.949Z,46
2016-03-14T12:14:46.937Z,46.56
2016-03-14T12:15:46.954Z,46.09
2016-03-14T12:16:46.957Z,45.9
2016-03-14T12:17:46.944Z,45.23
2016-03-14T12:18:46.946Z,45.14
2016-03-14T12:19:46.964Z,45.04
2016-03-14T12:20:46.951Z,45.42
2016-03-14T12:21:46.954Z,45.14
2016-03-14T12:22:46.956Z,44.95
2016-03-14T12:23:46.944Z,45.14
2016-03-14T12:24:46.946Z,44.67
2016-03-14T12:25:46.965Z,45.04
2016-03-14T12:26:46.967Z,45.52
2016-03-14T12:27:46.954Z,45.04
2016-03-14T12:28:46.956Z,45.35
2016-03-14T12:29:46.960Z,44.87
2016-03-14T12:30:46.963Z,44.49
2016-03-14T12:31:46.965Z,44.31
2016-03-14T12:32:46.968Z,44.12
2016-03-14T12:33:46.970Z,44.21
2016-03-14T12:34:46.973Z,44.59
2016-03-14T12:35:46.975Z,45.23
2016-03-14T12:36:46.979Z,45.14
2016-03-14T12:37:46.981Z,45.42
2016-03-14T12:38:46.968Z,45.42
2016-03-14T12:39:46.971Z,45.42
2016-03-14T12:40:46.990Z,44.76
2016-03-14T12:41:46.976Z,45.54
2016-03-14T12:42:46.979Z,45.16
2016-03-14T12:43:46.981Z,45.33
2016-03-14T12:44:46.984Z,45.54
2016-03-14T12:45:46.986Z,45.54
2016-03-14T12:46:46.974Z,44.87
2016-03-14T12:47:46.992Z,45.07
2016-03-14T12:48:46.979Z,44.78
2016-03-14T12:49:46.982Z,44.68
2016-03-14T12:50:47.000Z,44.68
2016-03-14T12:51:47.003Z,44.87
2016-03-14T12:52:46.990Z,44.21
2016-03-14T12:53:46.994Z,44.31
2016-03-14T12:54:47.011Z,44.31
2016-03-14T12:55:46.998Z,44.21
2016-03-14T12:56:47.002Z,44.59